sensor_id;sensor_type;location;lat;lon;timestamp;P1;durP1;ratioP1;P2;durP2;ratioP2
26311;SDS011;14019;56.964;24.016;2023-08-30T00:01:38;4.45;;;3.20;;
26311;SDS011;14019;56.964;24.016;2023-08-30T00:04:25;4.35;;;3.47;;
26311;SDS011;14019;56.964;24.016;2023-08-30T00:07:14;4.85;;;3.05;;
26311;SDS011;14019;56.964;24.016;2023-08-30T00:10:01;3.72;;;3.13;;
26311;SDS011;14019;56.964;24.016;2023-08-30T00:12:48;4.28;;;3.10;;
26311;SDS011;14019;56.964;24.016;2023-08-30T00:15:34;4.13;;;3.13;;
26311;SDS011;14019;56.964;24.016;2023-08-30T00:18:21;5.85;;;3.42;;
26311;SDS011;14019;56.964;24.016;2023-08-30T00:21:09;3.65;;;3.15;;
26311;SDS011;14019;56.964;24.016;2023-08-30T00:23:56;9.25;;;3.13;;
26311;SDS011;14019;56.964;24.016;2023-08-30T00:26:43;3.38;;;2.97;;
26311;SDS011;14019;56.964;24.016;2023-08-30T00:29:29;8.25;;;3.05;;
26311;SDS011;14019;56.964;24.016;2023-08-30T00:32:18;4.88;;;3.30;;
26311;SDS011;14019;56.964;24.016;2023-08-30T00:35:04;7.93;;;3.25;;
26311;SDS011;14019;56.964;24.016;2023-08-30T00:37:52;6.13;;;3.10;;
26311;SDS011;14019;56.964;24.016;2023-08-30T00:40:39;5.32;;;3.20;;
26311;SDS011;14019;56.964;24.016;2023-08-30T00:43:27;6.38;;;3.38;;
26311;SDS011;14019;56.964;24.016;2023-08-30T00:46:14;3.65;;;2.90;;
26311;SDS011;14019;56.964;24.016;2023-08-30T00:49:03;12.15;;;3.50;;
26311;SDS011;14019;56.964;24.016;2023-08-30T00:51:50;5.43;;;3.33;;
26311;SDS011;14019;56.964;24.016;2023-08-30T00:54:38;5.50;;;3.50;;
26311;SDS011;14019;56.964;24.016;2023-08-30T00:57:25;5.30;;;3.15;;
26311;SDS011;14019;56.964;24.016;2023-08-30T01:00:12;3.60;;;3.20;;
26311;SDS011;14019;56.964;24.016;2023-08-30T01:02:59;5.60;;;3.17;;
26311;SDS011;14019;56.964;24.016;2023-08-30T01:05:46;7.13;;;3.40;;
26311;SDS011;14019;56.964;24.016;2023-08-30T01:08:32;4.65;;;3.33;;
26311;SDS011;14019;56.964;24.016;2023-08-30T01:11:24;7.32;;;3.92;;
26311;SDS011;14019;56.964;24.016;2023-08-30T01:14:13;6.57;;;3.78;;
26311;SDS011;14019;56.964;24.016;2023-08-30T01:17:01;6.72;;;4.00;;
26311;SDS011;14019;56.964;24.016;2023-08-30T01:19:53;7.57;;;3.92;;
26311;SDS011;14019;56.964;24.016;2023-08-30T01:25:47;5.57;;;4.05;;
26311;SDS011;14019;56.964;24.016;2023-08-30T01:28:35;7.15;;;4.18;;
26311;SDS011;14019;56.964;24.016;2023-08-30T01:31:22;8.93;;;3.13;;
26311;SDS011;14019;56.964;24.016;2023-08-30T01:34:09;9.30;;;3.67;;
26311;SDS011;14019;56.964;24.016;2023-08-30T01:36:57;5.63;;;3.42;;
26311;SDS011;14019;56.964;24.016;2023-08-30T01:39:45;8.35;;;3.40;;
26311;SDS011;14019;56.964;24.016;2023-08-30T01:42:33;7.00;;;3.88;;
26311;SDS011;14019;56.964;24.016;2023-08-30T01:45:20;5.70;;;3.60;;
26311;SDS011;14019;56.964;24.016;2023-08-30T01:48:09;8.00;;;3.72;;
26311;SDS011;14019;56.964;24.016;2023-08-30T01:50:57;4.85;;;3.60;;
26311;SDS011;14019;56.964;24.016;2023-08-30T01:53:45;4.38;;;3.47;;
26311;SDS011;14019;56.964;24.016;2023-08-30T01:56:32;5.63;;;3.40;;
26311;SDS011;14019;56.964;24.016;2023-08-30T01:59:19;4.28;;;3.33;;
26311;SDS011;14019;56.964;24.016;2023-08-30T02:02:06;8.50;;;3.38;;
26311;SDS011;14019;56.964;24.016;2023-08-30T02:04:53;5.28;;;3.30;;
26311;SDS011;14019;56.964;24.016;2023-08-30T02:10:31;4.35;;;3.30;;
26311;SDS011;14019;56.964;24.016;2023-08-30T02:13:21;6.88;;;3.50;;
26311;SDS011;14019;56.964;24.016;2023-08-30T02:16:13;6.13;;;3.63;;
26311;SDS011;14019;56.964;24.016;2023-08-30T02:19:00;4.25;;;3.33;;
26311;SDS011;14019;56.964;24.016;2023-08-30T02:21:47;6.25;;;2.90;;
26311;SDS011;14019;56.964;24.016;2023-08-30T02:24:35;6.78;;;3.97;;
26311;SDS011;14019;56.964;24.016;2023-08-30T02:27:22;3.72;;;3.22;;
26311;SDS011;14019;56.964;24.016;2023-08-30T02:30:09;9.38;;;3.55;;
26311;SDS011;14019;56.964;24.016;2023-08-30T02:32:56;7.03;;;3.38;;
26311;SDS011;14019;56.964;24.016;2023-08-30T02:35:43;5.32;;;3.33;;
26311;SDS011;14019;56.964;24.016;2023-08-30T02:38:31;7.07;;;3.20;;
26311;SDS011;14019;56.964;24.016;2023-08-30T02:44:30;6.55;;;3.25;;
26311;SDS011;14019;56.964;24.016;2023-08-30T02:47:16;6.07;;;3.08;;
26311;SDS011;14019;56.964;24.016;2023-08-30T02:50:03;5.60;;;3.40;;
26311;SDS011;14019;56.964;24.016;2023-08-30T02:52:51;5.63;;;3.33;;
26311;SDS011;14019;56.964;24.016;2023-08-30T02:55:38;5.22;;;3.30;;
26311;SDS011;14019;56.964;24.016;2023-08-30T02:58:25;5.45;;;3.17;;
26311;SDS011;14019;56.964;24.016;2023-08-30T03:01:16;4.88;;;3.20;;
26311;SDS011;14019;56.964;24.016;2023-08-30T03:04:05;6.50;;;3.15;;
26311;SDS011;14019;56.964;24.016;2023-08-30T03:06:52;3.90;;;2.88;;
26311;SDS011;14019;56.964;24.016;2023-08-30T03:09:41;5.82;;;3.28;;
26311;SDS011;14019;56.964;24.016;2023-08-30T03:12:28;4.95;;;3.30;;
26311;SDS011;14019;56.964;24.016;2023-08-30T03:15:16;8.25;;;3.85;;
26311;SDS011;14019;56.964;24.016;2023-08-30T03:18:03;11.27;;;3.83;;
26311;SDS011;14019;56.964;24.016;2023-08-30T03:20:59;10.32;;;4.55;;
26311;SDS011;14019;56.964;24.016;2023-08-30T03:23:46;10.65;;;4.40;;
26311;SDS011;14019;56.964;24.016;2023-08-30T03:26:33;8.55;;;4.90;;
26311;SDS011;14019;56.964;24.016;2023-08-30T03:29:20;11.85;;;5.00;;
26311;SDS011;14019;56.964;24.016;2023-08-30T03:32:07;7.72;;;5.28;;
26311;SDS011;14019;56.964;24.016;2023-08-30T03:34:54;11.27;;;5.60;;
26311;SDS011;14019;56.964;24.016;2023-08-30T03:37:41;10.32;;;5.13;;
26311;SDS011;14019;56.964;24.016;2023-08-30T03:40:29;10.05;;;6.07;;
26311;SDS011;14019;56.964;24.016;2023-08-30T03:43:16;10.00;;;5.05;;
26311;SDS011;14019;56.964;24.016;2023-08-30T03:46:03;8.45;;;5.82;;
26311;SDS011;14019;56.964;24.016;2023-08-30T03:48:50;10.02;;;5.70;;
26311;SDS011;14019;56.964;24.016;2023-08-30T03:51:37;10.15;;;5.60;;
26311;SDS011;14019;56.964;24.016;2023-08-30T03:54:25;7.97;;;5.30;;
26311;SDS011;14019;56.964;24.016;2023-08-30T03:57:11;9.90;;;5.38;;
26311;SDS011;14019;56.964;24.016;2023-08-30T03:59:58;10.60;;;6.18;;
26311;SDS011;14019;56.964;24.016;2023-08-30T04:02:46;11.38;;;5.30;;
26311;SDS011;14019;56.964;24.016;2023-08-30T04:05:34;10.13;;;5.90;;
26311;SDS011;14019;56.964;24.016;2023-08-30T04:08:21;8.68;;;5.63;;
26311;SDS011;14019;56.964;24.016;2023-08-30T04:11:08;12.38;;;6.38;;
26311;SDS011;14019;56.964;24.016;2023-08-30T04:13:55;10.32;;;6.35;;
26311;SDS011;14019;56.964;24.016;2023-08-30T04:16:42;11.95;;;6.70;;
26311;SDS011;14019;56.964;24.016;2023-08-30T04:19:28;9.90;;;6.32;;
26311;SDS011;14019;56.964;24.016;2023-08-30T04:22:15;10.50;;;6.75;;
26311;SDS011;14019;56.964;24.016;2023-08-30T04:25:04;16.48;;;6.93;;
26311;SDS011;14019;56.964;24.016;2023-08-30T04:27:51;13.32;;;7.30;;
26311;SDS011;14019;56.964;24.016;2023-08-30T04:30:38;12.35;;;6.85;;
26311;SDS011;14019;56.964;24.016;2023-08-30T04:33:26;21.42;;;7.30;;
26311;SDS011;14019;56.964;24.016;2023-08-30T04:36:12;11.70;;;6.93;;
26311;SDS011;14019;56.964;24.016;2023-08-30T04:38:59;12.30;;;7.30;;
26311;SDS011;14019;56.964;24.016;2023-08-30T04:41:49;12.80;;;7.75;;
26311;SDS011;14019;56.964;24.016;2023-08-30T04:44:38;12.57;;;7.38;;
26311;SDS011;14019;56.964;24.016;2023-08-30T04:47:25;15.05;;;8.20;;
26311;SDS011;14019;56.964;24.016;2023-08-30T04:50:13;16.17;;;8.35;;
26311;SDS011;14019;56.964;24.016;2023-08-30T04:53:00;21.13;;;9.88;;
26311;SDS011;14019;56.964;24.016;2023-08-30T04:55:46;16.02;;;10.10;;
26311;SDS011;14019;56.964;24.016;2023-08-30T04:58:33;17.05;;;11.07;;
26311;SDS011;14019;56.964;24.016;2023-08-30T05:01:20;21.60;;;12.57;;
26311;SDS011;14019;56.964;24.016;2023-08-30T05:04:13;18.70;;;11.63;;
26311;SDS011;14019;56.964;24.016;2023-08-30T05:06:59;20.13;;;11.32;;
26311;SDS011;14019;56.964;24.016;2023-08-30T05:09:46;19.63;;;10.43;;
26311;SDS011;14019;56.964;24.016;2023-08-30T05:12:33;19.95;;;9.90;;
26311;SDS011;14019;56.964;24.016;2023-08-30T05:15:20;18.50;;;9.68;;
26311;SDS011;14019;56.964;24.016;2023-08-30T05:18:08;16.23;;;9.23;;
26311;SDS011;14019;56.964;24.016;2023-08-30T05:20:55;18.17;;;9.65;;
26311;SDS011;14019;56.964;24.016;2023-08-30T05:23:42;16.77;;;9.35;;
26311;SDS011;14019;56.964;24.016;2023-08-30T05:26:29;12.57;;;8.70;;
26311;SDS011;14019;56.964;24.016;2023-08-30T05:29:16;17.77;;;9.38;;
26311;SDS011;14019;56.964;24.016;2023-08-30T05:32:03;17.65;;;7.97;;
26311;SDS011;14019;56.964;24.016;2023-08-30T05:34:53;10.65;;;7.53;;
26311;SDS011;14019;56.964;24.016;2023-08-30T05:37:52;16.83;;;7.95;;
26311;SDS011;14019;56.964;24.016;2023-08-30T05:40:58;17.08;;;9.35;;
26311;SDS011;14019;56.964;24.016;2023-08-30T05:43:46;15.43;;;9.65;;
26311;SDS011;14019;56.964;24.016;2023-08-30T05:46:33;20.20;;;10.57;;
26311;SDS011;14019;56.964;24.016;2023-08-30T05:49:20;15.05;;;8.88;;
26311;SDS011;14019;56.964;24.016;2023-08-30T05:52:07;13.55;;;9.30;;
26311;SDS011;14019;56.964;24.016;2023-08-30T05:54:54;16.50;;;9.35;;
26311;SDS011;14019;56.964;24.016;2023-08-30T05:57:41;14.40;;;9.13;;
26311;SDS011;14019;56.964;24.016;2023-08-30T06:00:28;15.38;;;9.18;;
26311;SDS011;14019;56.964;24.016;2023-08-30T06:03:15;13.50;;;9.00;;
26311;SDS011;14019;56.964;24.016;2023-08-30T06:06:01;12.85;;;9.00;;
26311;SDS011;14019;56.964;24.016;2023-08-30T06:08:49;11.05;;;7.40;;
26311;SDS011;14019;56.964;24.016;2023-08-30T06:11:36;9.68;;;6.60;;
26311;SDS011;14019;56.964;24.016;2023-08-30T06:14:23;11.10;;;6.57;;
26311;SDS011;14019;56.964;24.016;2023-08-30T06:17:13;12.07;;;6.30;;
26311;SDS011;14019;56.964;24.016;2023-08-30T06:20:01;8.93;;;5.95;;
26311;SDS011;14019;56.964;24.016;2023-08-30T06:22:48;6.43;;;5.28;;
26311;SDS011;14019;56.964;24.016;2023-08-30T06:25:35;8.35;;;5.00;;
26311;SDS011;14019;56.964;24.016;2023-08-30T06:28:21;8.85;;;5.13;;
26311;SDS011;14019;56.964;24.016;2023-08-30T06:31:08;8.45;;;5.10;;
26311;SDS011;14019;56.964;24.016;2023-08-30T06:33:55;7.68;;;4.85;;
26311;SDS011;14019;56.964;24.016;2023-08-30T06:36:42;7.20;;;4.55;;
26311;SDS011;14019;56.964;24.016;2023-08-30T06:39:34;7.00;;;4.30;;
26311;SDS011;14019;56.964;24.016;2023-08-30T06:42:21;5.78;;;4.13;;
26311;SDS011;14019;56.964;24.016;2023-08-30T06:45:10;6.30;;;4.47;;
26311;SDS011;14019;56.964;24.016;2023-08-30T06:47:57;7.80;;;4.07;;
26311;SDS011;14019;56.964;24.016;2023-08-30T06:50:44;6.68;;;3.97;;
26311;SDS011;14019;56.964;24.016;2023-08-30T06:53:31;6.85;;;4.50;;
26311;SDS011;14019;56.964;24.016;2023-08-30T06:56:17;5.53;;;4.10;;
26311;SDS011;14019;56.964;24.016;2023-08-30T06:59:04;5.85;;;4.10;;
26311;SDS011;14019;56.964;24.016;2023-08-30T07:01:52;7.05;;;4.32;;
26311;SDS011;14019;56.964;24.016;2023-08-30T07:04:39;6.40;;;3.97;;
26311;SDS011;14019;56.964;24.016;2023-08-30T07:07:26;8.02;;;4.75;;
26311;SDS011;14019;56.964;24.016;2023-08-30T07:10:13;9.73;;;4.55;;
26311;SDS011;14019;56.964;24.016;2023-08-30T07:13:00;7.57;;;4.25;;
26311;SDS011;14019;56.964;24.016;2023-08-30T07:15:47;6.97;;;4.50;;
26311;SDS011;14019;56.964;24.016;2023-08-30T07:18:34;8.48;;;4.97;;
26311;SDS011;14019;56.964;24.016;2023-08-30T07:21:21;6.78;;;4.63;;
26311;SDS011;14019;56.964;24.016;2023-08-30T07:24:08;7.15;;;4.78;;
26311;SDS011;14019;56.964;24.016;2023-08-30T07:26:55;8.30;;;4.90;;
26311;SDS011;14019;56.964;24.016;2023-08-30T07:29:41;7.70;;;4.70;;
26311;SDS011;14019;56.964;24.016;2023-08-30T07:32:30;7.35;;;4.68;;
26311;SDS011;14019;56.964;24.016;2023-08-30T07:35:17;7.32;;;4.88;;
26311;SDS011;14019;56.964;24.016;2023-08-30T07:38:04;8.15;;;4.70;;
26311;SDS011;14019;56.964;24.016;2023-08-30T07:40:53;10.10;;;4.60;;
26311;SDS011;14019;56.964;24.016;2023-08-30T07:43:39;7.82;;;4.63;;
26311;SDS011;14019;56.964;24.016;2023-08-30T07:46:28;9.63;;;4.90;;
26311;SDS011;14019;56.964;24.016;2023-08-30T07:49:14;7.93;;;4.72;;
26311;SDS011;14019;56.964;24.016;2023-08-30T07:52:01;8.73;;;4.70;;
26311;SDS011;14019;56.964;24.016;2023-08-30T07:54:48;5.35;;;4.00;;
26311;SDS011;14019;56.964;24.016;2023-08-30T07:57:35;6.53;;;4.53;;
26311;SDS011;14019;56.964;24.016;2023-08-30T08:00:21;5.88;;;4.28;;
26311;SDS011;14019;56.964;24.016;2023-08-30T08:03:07;7.82;;;4.28;;
26311;SDS011;14019;56.964;24.016;2023-08-30T08:05:55;5.57;;;3.92;;
26311;SDS011;14019;56.964;24.016;2023-08-30T08:08:45;7.93;;;4.15;;
26311;SDS011;14019;56.964;24.016;2023-08-30T08:11:31;6.43;;;4.47;;
26311;SDS011;14019;56.964;24.016;2023-08-30T08:14:18;5.75;;;4.10;;
26311;SDS011;14019;56.964;24.016;2023-08-30T08:17:05;7.28;;;4.13;;
26311;SDS011;14019;56.964;24.016;2023-08-30T08:19:51;6.78;;;3.75;;
26311;SDS011;14019;56.964;24.016;2023-08-30T08:22:37;4.72;;;3.85;;
26311;SDS011;14019;56.964;24.016;2023-08-30T08:28:36;7.63;;;4.20;;
26311;SDS011;14019;56.964;24.016;2023-08-30T08:31:23;7.68;;;4.30;;
26311;SDS011;14019;56.964;24.016;2023-08-30T08:34:11;6.00;;;3.88;;
26311;SDS011;14019;56.964;24.016;2023-08-30T08:36:58;10.10;;;4.65;;
26311;SDS011;14019;56.964;24.016;2023-08-30T08:39:44;7.00;;;4.45;;
26311;SDS011;14019;56.964;24.016;2023-08-30T08:42:32;7.88;;;4.40;;
26311;SDS011;14019;56.964;24.016;2023-08-30T08:45:18;10.88;;;4.55;;
26311;SDS011;14019;56.964;24.016;2023-08-30T08:48:06;7.03;;;4.15;;
26311;SDS011;14019;56.964;24.016;2023-08-30T08:50:53;6.05;;;4.40;;
26311;SDS011;14019;56.964;24.016;2023-08-30T08:53:40;9.20;;;4.40;;
26311;SDS011;14019;56.964;24.016;2023-08-30T08:56:27;9.90;;;4.07;;
26311;SDS011;14019;56.964;24.016;2023-08-30T08:59:14;7.10;;;4.00;;
26311;SDS011;14019;56.964;24.016;2023-08-30T09:02:01;7.32;;;4.20;;
26311;SDS011;14019;56.964;24.016;2023-08-30T09:04:48;7.68;;;4.03;;
26311;SDS011;14019;56.964;24.016;2023-08-30T09:07:34;5.78;;;4.13;;
26311;SDS011;14019;56.964;24.016;2023-08-30T09:10:22;6.70;;;4.20;;
26311;SDS011;14019;56.964;24.016;2023-08-30T09:13:09;5.13;;;3.97;;
26311;SDS011;14019;56.964;24.016;2023-08-30T09:15:56;6.93;;;4.72;;
26311;SDS011;14019;56.964;24.016;2023-08-30T09:18:44;6.25;;;4.68;;
26311;SDS011;14019;56.964;24.016;2023-08-30T09:21:54;6.95;;;4.20;;
26311;SDS011;14019;56.964;24.016;2023-08-30T09:24:41;7.10;;;4.35;;
26311;SDS011;14019;56.964;24.016;2023-08-30T09:27:32;7.18;;;4.32;;
26311;SDS011;14019;56.964;24.016;2023-08-30T09:30:23;5.82;;;4.10;;
26311;SDS011;14019;56.964;24.016;2023-08-30T09:33:10;5.55;;;3.97;;
26311;SDS011;14019;56.964;24.016;2023-08-30T09:35:58;6.82;;;3.90;;
26311;SDS011;14019;56.964;24.016;2023-08-30T09:38:48;8.05;;;3.65;;
26311;SDS011;14019;56.964;24.016;2023-08-30T09:41:57;6.82;;;3.97;;
26311;SDS011;14019;56.964;24.016;2023-08-30T09:44:43;7.88;;;3.97;;
26311;SDS011;14019;56.964;24.016;2023-08-30T09:47:30;10.02;;;4.70;;
26311;SDS011;14019;56.964;24.016;2023-08-30T09:50:17;6.35;;;3.85;;
26311;SDS011;14019;56.964;24.016;2023-08-30T09:53:08;10.13;;;4.57;;
26311;SDS011;14019;56.964;24.016;2023-08-30T09:55:56;9.07;;;4.72;;
26311;SDS011;14019;56.964;24.016;2023-08-30T09:58:45;7.53;;;4.15;;
26311;SDS011;14019;56.964;24.016;2023-08-30T10:01:32;9.90;;;4.15;;
26311;SDS011;14019;56.964;24.016;2023-08-30T10:04:19;8.52;;;4.30;;
26311;SDS011;14019;56.964;24.016;2023-08-30T10:07:13;9.18;;;4.18;;
26311;SDS011;14019;56.964;24.016;2023-08-30T10:09:59;8.95;;;4.57;;
26311;SDS011;14019;56.964;24.016;2023-08-30T10:12:54;8.25;;;4.40;;
26311;SDS011;14019;56.964;24.016;2023-08-30T10:16:01;7.38;;;4.50;;
26311;SDS011;14019;56.964;24.016;2023-08-30T10:18:52;10.65;;;4.78;;
26311;SDS011;14019;56.964;24.016;2023-08-30T10:21:55;6.63;;;4.43;;
26311;SDS011;14019;56.964;24.016;2023-08-30T10:24:44;5.85;;;4.25;;
26311;SDS011;14019;56.964;24.016;2023-08-30T10:27:52;7.65;;;4.32;;
26311;SDS011;14019;56.964;24.016;2023-08-30T10:30:39;7.32;;;4.53;;
26311;SDS011;14019;56.964;24.016;2023-08-30T10:33:26;9.27;;;4.35;;
26311;SDS011;14019;56.964;24.016;2023-08-30T10:36:20;5.93;;;4.35;;
26311;SDS011;14019;56.964;24.016;2023-08-30T10:39:11;6.57;;;4.28;;
26311;SDS011;14019;56.964;24.016;2023-08-30T10:41:58;9.20;;;4.43;;
26311;SDS011;14019;56.964;24.016;2023-08-30T10:48:01;7.60;;;4.40;;
26311;SDS011;14019;56.964;24.016;2023-08-30T10:50:49;8.23;;;4.72;;
26311;SDS011;14019;56.964;24.016;2023-08-30T10:53:37;8.98;;;4.60;;
26311;SDS011;14019;56.964;24.016;2023-08-30T10:56:29;8.60;;;4.43;;
26311;SDS011;14019;56.964;24.016;2023-08-30T10:59:20;7.53;;;4.65;;
26311;SDS011;14019;56.964;24.016;2023-08-30T11:02:07;7.82;;;4.20;;
26311;SDS011;14019;56.964;24.016;2023-08-30T11:04:54;7.65;;;4.32;;
26311;SDS011;14019;56.964;24.016;2023-08-30T11:07:42;7.00;;;4.50;;
26311;SDS011;14019;56.964;24.016;2023-08-30T11:10:29;10.48;;;4.97;;
26311;SDS011;14019;56.964;24.016;2023-08-30T11:13:15;9.68;;;5.05;;
26311;SDS011;14019;56.964;24.016;2023-08-30T11:16:03;11.27;;;5.07;;
26311;SDS011;14019;56.964;24.016;2023-08-30T11:18:49;10.75;;;5.32;;
26311;SDS011;14019;56.964;24.016;2023-08-30T11:21:37;9.68;;;4.80;;
26311;SDS011;14019;56.964;24.016;2023-08-30T11:24:24;10.80;;;5.53;;
26311;SDS011;14019;56.964;24.016;2023-08-30T11:27:10;7.35;;;5.07;;
26311;SDS011;14019;56.964;24.016;2023-08-30T11:30:00;10.55;;;5.28;;
26311;SDS011;14019;56.964;24.016;2023-08-30T11:32:50;12.88;;;5.53;;
26311;SDS011;14019;56.964;24.016;2023-08-30T11:35:38;9.52;;;4.75;;
26311;SDS011;14019;56.964;24.016;2023-08-30T11:38:27;12.70;;;5.15;;
26311;SDS011;14019;56.964;24.016;2023-08-30T11:41:13;9.80;;;6.15;;
26311;SDS011;14019;56.964;24.016;2023-08-30T11:43:59;10.73;;;5.20;;
26311;SDS011;14019;56.964;24.016;2023-08-30T11:46:47;8.48;;;5.55;;
26311;SDS011;14019;56.964;24.016;2023-08-30T11:49:35;8.30;;;5.25;;
26311;SDS011;14019;56.964;24.016;2023-08-30T11:52:22;13.52;;;5.72;;
26311;SDS011;14019;56.964;24.016;2023-08-30T11:55:09;10.57;;;5.60;;
26311;SDS011;14019;56.964;24.016;2023-08-30T11:57:57;8.57;;;5.60;;
26311;SDS011;14019;56.964;24.016;2023-08-30T12:00:43;7.93;;;5.57;;
26311;SDS011;14019;56.964;24.016;2023-08-30T12:03:31;9.18;;;5.53;;
26311;SDS011;14019;56.964;24.016;2023-08-30T12:06:18;9.68;;;6.07;;
26311;SDS011;14019;56.964;24.016;2023-08-30T12:09:04;11.20;;;6.05;;
26311;SDS011;14019;56.964;24.016;2023-08-30T12:11:54;11.75;;;6.40;;
26311;SDS011;14019;56.964;24.016;2023-08-30T12:14:56;10.00;;;5.97;;
26311;SDS011;14019;56.964;24.016;2023-08-30T12:17:43;9.57;;;6.50;;
26311;SDS011;14019;56.964;24.016;2023-08-30T12:20:29;10.38;;;6.22;;
26311;SDS011;14019;56.964;24.016;2023-08-30T12:23:19;11.77;;;6.00;;
26311;SDS011;14019;56.964;24.016;2023-08-30T12:26:07;8.35;;;6.00;;
26311;SDS011;14019;56.964;24.016;2023-08-30T12:28:53;9.20;;;6.00;;
26311;SDS011;14019;56.964;24.016;2023-08-30T12:31:40;9.80;;;6.20;;
26311;SDS011;14019;56.964;24.016;2023-08-30T12:34:26;11.68;;;6.30;;
26311;SDS011;14019;56.964;24.016;2023-08-30T12:37:14;12.02;;;6.05;;
26311;SDS011;14019;56.964;24.016;2023-08-30T12:40:00;9.35;;;5.90;;
26311;SDS011;14019;56.964;24.016;2023-08-30T12:42:47;12.57;;;6.85;;
26311;SDS011;14019;56.964;24.016;2023-08-30T12:45:34;11.85;;;6.75;;
26311;SDS011;14019;56.964;24.016;2023-08-30T12:48:21;11.57;;;6.18;;
26311;SDS011;14019;56.964;24.016;2023-08-30T12:51:08;8.68;;;5.80;;
26311;SDS011;14019;56.964;24.016;2023-08-30T12:53:55;10.18;;;6.07;;
26311;SDS011;14019;56.964;24.016;2023-08-30T12:56:41;11.25;;;6.15;;
26311;SDS011;14019;56.964;24.016;2023-08-30T12:59:28;8.52;;;6.53;;
26311;SDS011;14019;56.964;24.016;2023-08-30T13:02:15;12.52;;;6.40;;
26311;SDS011;14019;56.964;24.016;2023-08-30T13:05:01;9.60;;;6.20;;
26311;SDS011;14019;56.964;24.016;2023-08-30T13:07:48;8.80;;;5.82;;
26311;SDS011;14019;56.964;24.016;2023-08-30T13:10:35;11.32;;;6.30;;
26311;SDS011;14019;56.964;24.016;2023-08-30T13:13:22;9.25;;;6.50;;
26311;SDS011;14019;56.964;24.016;2023-08-30T13:16:08;10.20;;;6.22;;
26311;SDS011;14019;56.964;24.016;2023-08-30T13:18:55;11.35;;;6.22;;
26311;SDS011;14019;56.964;24.016;2023-08-30T13:21:42;7.95;;;6.25;;
26311;SDS011;14019;56.964;24.016;2023-08-30T13:24:28;11.32;;;6.00;;
26311;SDS011;14019;56.964;24.016;2023-08-30T13:27:18;9.70;;;5.95;;
26311;SDS011;14019;56.964;24.016;2023-08-30T13:30:05;9.13;;;5.90;;
26311;SDS011;14019;56.964;24.016;2023-08-30T13:32:52;8.82;;;5.97;;
26311;SDS011;14019;56.964;24.016;2023-08-30T13:35:39;11.57;;;5.80;;
26311;SDS011;14019;56.964;24.016;2023-08-30T13:38:26;12.57;;;6.38;;
26311;SDS011;14019;56.964;24.016;2023-08-30T13:41:12;7.85;;;5.68;;
26311;SDS011;14019;56.964;24.016;2023-08-30T13:43:59;8.18;;;5.70;;
26311;SDS011;14019;56.964;24.016;2023-08-30T13:46:46;10.45;;;6.30;;
26311;SDS011;14019;56.964;24.016;2023-08-30T13:49:35;10.90;;;5.85;;
26311;SDS011;14019;56.964;24.016;2023-08-30T13:52:22;11.75;;;6.20;;
26311;SDS011;14019;56.964;24.016;2023-08-30T13:55:09;10.32;;;5.90;;
26311;SDS011;14019;56.964;24.016;2023-08-30T13:57:55;9.43;;;6.10;;
26311;SDS011;14019;56.964;24.016;2023-08-30T14:00:43;11.50;;;5.75;;
26311;SDS011;14019;56.964;24.016;2023-08-30T14:03:31;12.90;;;5.88;;
26311;SDS011;14019;56.964;24.016;2023-08-30T14:06:18;9.63;;;5.60;;
26311;SDS011;14019;56.964;24.016;2023-08-30T14:09:04;7.13;;;5.10;;
26311;SDS011;14019;56.964;24.016;2023-08-30T14:11:54;8.95;;;5.25;;
26311;SDS011;14019;56.964;24.016;2023-08-30T14:14:41;10.55;;;5.50;;
26311;SDS011;14019;56.964;24.016;2023-08-30T14:17:27;10.80;;;5.80;;
26311;SDS011;14019;56.964;24.016;2023-08-30T14:20:14;7.25;;;5.55;;
26311;SDS011;14019;56.964;24.016;2023-08-30T14:23:01;8.10;;;5.55;;
26311;SDS011;14019;56.964;24.016;2023-08-30T14:25:54;8.98;;;5.57;;
26311;SDS011;14019;56.964;24.016;2023-08-30T14:28:41;8.38;;;5.38;;
26311;SDS011;14019;56.964;24.016;2023-08-30T14:31:28;8.80;;;5.47;;
26311;SDS011;14019;56.964;24.016;2023-08-30T14:34:16;8.63;;;5.60;;
26311;SDS011;14019;56.964;24.016;2023-08-30T14:37:03;8.63;;;5.78;;
26311;SDS011;14019;56.964;24.016;2023-08-30T14:39:52;6.40;;;5.32;;
26311;SDS011;14019;56.964;24.016;2023-08-30T14:42:39;8.98;;;5.40;;
26311;SDS011;14019;56.964;24.016;2023-08-30T14:45:26;8.30;;;4.95;;
26311;SDS011;14019;56.964;24.016;2023-08-30T14:48:12;6.65;;;5.13;;
26311;SDS011;14019;56.964;24.016;2023-08-30T14:50:59;6.45;;;4.93;;
26311;SDS011;14019;56.964;24.016;2023-08-30T14:53:46;9.98;;;5.05;;
26311;SDS011;14019;56.964;24.016;2023-08-30T14:56:32;7.38;;;4.72;;
26311;SDS011;14019;56.964;24.016;2023-08-30T14:59:18;6.38;;;4.70;;
26311;SDS011;14019;56.964;24.016;2023-08-30T15:02:05;8.65;;;5.00;;
26311;SDS011;14019;56.964;24.016;2023-08-30T15:04:52;9.63;;;5.18;;
26311;SDS011;14019;56.964;24.016;2023-08-30T15:07:39;9.27;;;5.00;;
26311;SDS011;14019;56.964;24.016;2023-08-30T15:10:26;5.65;;;4.90;;
26311;SDS011;14019;56.964;24.016;2023-08-30T15:13:12;7.15;;;4.93;;
26311;SDS011;14019;56.964;24.016;2023-08-30T15:15:59;7.32;;;4.93;;
26311;SDS011;14019;56.964;24.016;2023-08-30T15:18:45;7.18;;;5.07;;
26311;SDS011;14019;56.964;24.016;2023-08-30T15:21:32;6.03;;;4.97;;
26311;SDS011;14019;56.964;24.016;2023-08-30T15:24:19;7.07;;;5.18;;
26311;SDS011;14019;56.964;24.016;2023-08-30T15:27:05;7.10;;;4.43;;
26311;SDS011;14019;56.964;24.016;2023-08-30T15:29:52;7.80;;;5.03;;
26311;SDS011;14019;56.964;24.016;2023-08-30T15:32:40;7.70;;;5.25;;
26311;SDS011;14019;56.964;24.016;2023-08-30T15:35:28;7.40;;;5.20;;
26311;SDS011;14019;56.964;24.016;2023-08-30T15:38:14;7.47;;;4.95;;
26311;SDS011;14019;56.964;24.016;2023-08-30T15:41:11;8.80;;;4.85;;
26311;SDS011;14019;56.964;24.016;2023-08-30T15:43:57;6.55;;;4.70;;
26311;SDS011;14019;56.964;24.016;2023-08-30T15:46:44;8.15;;;4.90;;
26311;SDS011;14019;56.964;24.016;2023-08-30T15:49:32;11.30;;;5.78;;
26311;SDS011;14019;56.964;24.016;2023-08-30T15:52:19;7.05;;;4.75;;
26311;SDS011;14019;56.964;24.016;2023-08-30T15:55:06;6.07;;;4.45;;
26311;SDS011;14019;56.964;24.016;2023-08-30T15:57:52;7.75;;;4.43;;
26311;SDS011;14019;56.964;24.016;2023-08-30T16:00:39;6.55;;;4.65;;
26311;SDS011;14019;56.964;24.016;2023-08-30T16:03:30;8.35;;;4.18;;
26311;SDS011;14019;56.964;24.016;2023-08-30T16:06:17;5.47;;;4.32;;
26311;SDS011;14019;56.964;24.016;2023-08-30T16:09:04;7.47;;;4.50;;
26311;SDS011;14019;56.964;24.016;2023-08-30T16:11:51;8.75;;;4.53;;
26311;SDS011;14019;56.964;24.016;2023-08-30T16:14:38;8.45;;;4.60;;
26311;SDS011;14019;56.964;24.016;2023-08-30T16:17:25;7.28;;;4.70;;
26311;SDS011;14019;56.964;24.016;2023-08-30T16:20:11;6.35;;;4.43;;
26311;SDS011;14019;56.964;24.016;2023-08-30T16:22:59;7.22;;;4.38;;
26311;SDS011;14019;56.964;24.016;2023-08-30T16:25:46;6.80;;;4.28;;
26311;SDS011;14019;56.964;24.016;2023-08-30T16:28:32;5.75;;;4.07;;
26311;SDS011;14019;56.964;24.016;2023-08-30T16:31:22;6.75;;;4.50;;
26311;SDS011;14019;56.964;24.016;2023-08-30T16:34:14;7.40;;;4.45;;
26311;SDS011;14019;56.964;24.016;2023-08-30T16:37:00;7.10;;;4.40;;
26311;SDS011;14019;56.964;24.016;2023-08-30T16:39:47;7.63;;;4.45;;
26311;SDS011;14019;56.964;24.016;2023-08-30T16:42:33;8.30;;;4.45;;
26311;SDS011;14019;56.964;24.016;2023-08-30T16:45:20;6.65;;;4.47;;
26311;SDS011;14019;56.964;24.016;2023-08-30T16:48:06;5.22;;;4.50;;